Time;durP1;ratioP1;P1;durP2;ratioP2;P2;SDS_P1;SDS_P2;PMS_P1;PMS_P2;Temp;Humidity;BMP_temperature;BMP_pressure;BME280_temperature;BME280_humidity;BME280_pressure;Samples;Min_cycle;Max_cycle;Signal;HPM_P1;HPM_P2
2023/06/27 04:01:58;;;;;;;1.60;1.50;;;17.30;97.30;;;;;;5292364;23;20498;-91
2023/06/27 04:04:23;;;;;;;1.47;1.30;;;17.40;97.30;;;;;;4934500;29;20443;-89
2023/06/27 04:06:49;;;;;;;6.73;1.90;;;17.40;97.30;;;;;;4926436;29;20269;-89
2023/06/27 04:09:14;;;;;;;1.37;1.20;;;17.40;97.30;;;;;;4934815;29;20239;-91
2023/06/27 04:11:40;;;;;;;1.23;1.13;;;17.40;97.30;;;;;;4926504;29;20688;-89
2023/06/27 04:14:05;;;;;;;1.40;1.30;;;17.30;97.30;;;;;;4925422;29;20188;-89
2023/06/27 04:16:31;;;;;;;1.10;1.00;;;17.20;97.30;;;;;;4933552;29;20548;-89
2023/06/27 04:18:56;;;;;;;8.93;2.10;;;17.10;97.30;;;;;;4926760;29;20235;-89
2023/06/27 04:21:22;;;;;;;1.30;1.20;;;17.00;97.30;;;;;;4934392;29;20587;-89
2023/06/27 04:23:49;;;;;;;2.00;1.73;;;17.00;97.30;;;;;;4923885;29;20183;-89
2023/06/27 04:26:17;;;;;;;1.53;1.50;;;17.00;97.30;;;;;;4922592;29;20204;-89
2023/06/27 04:28:43;;;;;;;1.37;1.33;;;17.00;97.30;;;;;;4924987;29;20425;-89
2023/06/27 04:31:09;;;;;;;2.13;1.50;;;17.00;97.30;;;;;;4928709;29;20508;-88
2023/06/27 04:33:39;;;;;;;3.07;1.90;;;17.00;97.30;;;;;;4930918;29;20188;-89
2023/06/27 04:36:05;;;;;;;11.47;1.87;;;16.90;97.30;;;;;;4926374;29;20195;-89
2023/06/27 04:38:37;;;;;;;1.40;1.30;;;16.90;97.30;;;;;;4926086;29;20435;-89
2023/06/27 04:41:04;;;;;;;1.40;1.30;;;16.80;97.30;;;;;;4927464;29;20478;-85
2023/06/27 04:43:32;;;;;;;44.50;1.83;;;16.90;97.30;;;;;;4925972;29;20466;-89
2023/06/27 04:45:58;;;;;;;6.50;1.70;;;17.00;97.30;;;;;;4930294;29;20429;-89
2023/06/27 04:48:24;;;;;;;2.70;1.83;;;17.00;97.30;;;;;;4929563;29;20575;-89
2023/06/27 04:50:49;;;;;;;4.70;1.50;;;17.00;97.30;;;;;;4933538;29;20522;-89
2023/06/27 04:53:15;;;;;;;4.70;2.00;;;17.00;97.30;;;;;;4933506;29;20184;-89
2023/06/27 04:55:40;;;;;;;1.30;1.20;;;16.90;97.30;;;;;;4925777;29;20794;-89
2023/06/27 04:58:06;;;;;;;3.67;2.47;;;16.90;97.30;;;;;;4926880;29;20196;-89
2023/06/27 05:00:31;;;;;;;1.37;1.27;;;17.10;97.30;;;;;;4933180;29;20418;-90
2023/06/27 05:02:56;;;;;;;1.50;1.37;;;17.20;97.30;;;;;;4922373;29;20192;-89
2023/06/27 05:05:22;;;;;;;10.43;2.13;;;17.20;97.30;;;;;;4928954;29;20654;-91
2023/06/27 05:07:47;;;;;;;3.57;2.70;;;17.20;97.30;;;;;;4930744;29;20294;-88
2023/06/27 05:10:13;;;;;;;1.33;1.23;;;17.20;97.30;;;;;;4925770;29;20218;-89
2023/06/27 05:12:38;;;;;;;1.33;1.20;;;17.20;97.30;;;;;;4932951;29;20227;-88
2023/06/27 05:15:05;;;;;;;2.30;2.10;;;17.20;97.30;;;;;;4925630;29;20568;-89
2023/06/27 05:17:30;;;;;;;5.60;2.30;;;17.10;97.30;;;;;;4931772;29;20188;-88
2023/06/27 05:19:56;;;;;;;3.23;1.63;;;17.00;97.30;;;;;;4930140;29;20434;-88
2023/06/27 05:22:21;;;;;;;4.00;2.30;;;17.00;97.30;;;;;;4934116;29;20203;-89
2023/06/27 05:24:47;;;;;;;1.60;1.50;;;16.90;97.30;;;;;;4932998;29;20725;-90
2023/06/27 05:27:12;;;;;;;4.27;1.57;;;16.90;97.30;;;;;;4931466;29;20198;-88
2023/06/27 05:29:38;;;;;;;1.50;1.50;;;16.90;97.30;;;;;;4932694;29;20192;-88
2023/06/27 05:32:03;;;;;;;3.30;2.50;;;16.90;97.30;;;;;;4932617;29;20204;-88
2023/06/27 05:34:29;;;;;;;1.43;1.00;;;16.90;97.30;;;;;;4930726;29;20190;-89
2023/06/27 05:36:55;;;;;;;1.27;1.17;;;16.90;97.30;;;;;;4932613;29;20183;-88
2023/06/27 05:39:21;;;;;;;1.37;1.37;;;16.90;97.30;;;;;;4930534;29;20180;-88
2023/06/27 05:41:47;;;;;;;2.23;1.93;;;16.90;97.30;;;;;;4933143;29;20451;-88
2023/06/27 05:44:13;;;;;;;1.77;1.67;;;16.90;97.30;;;;;;4930981;29;20191;-88
2023/06/27 05:46:39;;;;;;;2.80;2.30;;;16.90;97.30;;;;;;4932804;29;20782;-88
2023/06/27 05:49:11;;;;;;;1.13;1.03;;;16.90;97.30;;;;;;5125550;27;20509;-81
2023/06/27 05:51:37;;;;;;;1.57;1.50;;;16.90;97.30;;;;;;5096102;28;20509;-80
2023/06/27 05:54:02;;;;;;;4.73;1.53;;;16.90;97.30;;;;;;5086802;28;20671;-79
2023/06/27 05:56:28;;;;;;;6.60;2.40;;;16.90;97.30;;;;;;5088074;28;20177;-74
2023/06/27 05:58:53;;;;;;;1.80;1.80;;;16.90;97.30;;;;;;5088740;28;20180;-81
2023/06/27 06:01:19;;;;;;;1.60;1.47;;;16.90;97.30;;;;;;5088246;28;20221;-75
2023/06/27 06:03:44;;;;;;;1.20;1.10;;;16.90;97.30;;;;;;5087066;28;20268;-81
2023/06/27 06:06:11;;;;;;;1.57;1.47;;;16.90;97.30;;;;;;5106136;28;20186;-83
2023/06/27 06:08:36;;;;;;;3.30;1.53;;;17.00;97.30;;;;;;5089049;28;20239;-84
2023/06/27 06:11:02;;;;;;;1.33;1.23;;;17.00;97.30;;;;;;5107718;28;20435;-74
2023/06/27 06:13:27;;;;;;;2.43;1.80;;;17.00;97.30;;;;;;5086488;28;20577;-82
2023/06/27 06:15:53;;;;;;;1.50;1.40;;;17.00;97.30;;;;;;5085502;28;20182;-80
2023/06/27 06:18:18;;;;;;;1.30;1.20;;;17.10;97.30;;;;;;5081820;28;20197;-77
2023/06/27 06:20:44;;;;;;;1.47;1.37;;;17.10;97.30;;;;;;5088174;28;20221;-81
2023/06/27 06:23:09;;;;;;;1.47;1.37;;;17.20;97.30;;;;;;5106602;28;20193;-80
2023/06/27 06:25:35;;;;;;;1.53;1.50;;;17.20;97.10;;;;;;5106846;28;20186;-86
2023/06/27 06:28:00;;;;;;;1.20;1.20;;;17.20;97.10;;;;;;5106547;28;20708;-81
2023/06/27 06:30:26;;;;;;;2.33;2.13;;;17.30;96.70;;;;;;5088739;28;20240;-81
2023/06/27 06:32:53;;;;;;;1.53;1.43;;;17.30;96.40;;;;;;5107201;28;20178;-68
2023/06/27 06:35:19;;;;;;;1.30;1.20;;;17.40;96.30;;;;;;5087980;28;20412;-83
2023/06/27 06:37:44;;;;;;;2.50;1.63;;;17.40;94.50;;;;;;5088278;28;20435;-81
2023/06/27 06:40:10;;;;;;;1.87;1.77;;;17.40;94.50;;;;;;5087833;28;20185;-79
2023/06/27 06:42:36;;;;;;;1.20;1.10;;;17.40;93.60;;;;;;5087563;28;20194;-79
2023/06/27 06:45:03;;;;;;;11.90;2.63;;;17.40;93.60;;;;;;5087327;28;20416;-78
2023/06/27 06:47:28;;;;;;;1.47;1.37;;;17.40;93.50;;;;;;5105946;28;20218;-83
2023/06/27 06:49:54;;;;;;;1.70;1.60;;;17.40;94.00;;;;;;5105883;28;20416;-81
2023/06/27 06:52:19;;;;;;;1.40;1.30;;;17.50;94.10;;;;;;5088450;28;20662;-83
2023/06/27 06:54:46;;;;;;;4.43;2.80;;;17.60;93.70;;;;;;5105606;28;20189;-87
2023/06/27 06:57:12;;;;;;;1.10;1.00;;;17.70;92.40;;;;;;5087698;28;20185;-82
2023/06/27 06:59:37;;;;;;;1.33;1.23;;;17.80;92.70;;;;;;5097616;28;20451;-83
2023/06/27 07:02:03;;;;;;;1.87;1.43;;;17.90;92.10;;;;;;5071100;28;20202;-86
2023/06/27 07:04:28;;;;;;;1.13;1.07;;;17.90;92.00;;;;;;5087583;28;20186;-74
2023/06/27 07:06:54;;;;;;;1.20;1.10;;;18.00;91.40;;;;;;5074312;28;20653;-82
2023/06/27 07:09:20;;;;;;;2.50;1.20;;;18.10;91.10;;;;;;5090256;28;20187;-82
2023/06/27 07:11:47;;;;;;;2.40;2.20;;;18.20;90.70;;;;;;5090709;28;20431;-83
2023/06/27 07:14:13;;;;;;;1.57;1.47;;;18.30;90.60;;;;;;5074707;28;20178;-84
2023/06/27 07:16:38;;;;;;;2.07;1.93;;;18.40;90.30;;;;;;5074059;28;20481;-86
2023/06/27 07:19:04;;;;;;;1.23;1.17;;;18.40;90.80;;;;;;5073631;28;20178;-90
2023/06/27 07:21:29;;;;;;;1.57;1.47;;;18.50;90.70;;;;;;5074968;28;20206;-90
2023/06/27 07:23:55;;;;;;;1.67;1.47;;;18.50;91.00;;;;;;5074612;28;20186;-87
2023/06/27 07:26:20;;;;;;;2.00;1.80;;;18.50;89.80;;;;;;5073948;28;20529;-82
2023/06/27 07:28:46;;;;;;;1.33;1.23;;;18.40;88.60;;;;;;5073641;28;20513;-73
2023/06/27 07:31:11;;;;;;;1.30;1.23;;;18.30;87.70;;;;;;5073408;28;20198;-82
2023/06/27 07:33:37;;;;;;;1.57;1.50;;;18.20;87.40;;;;;;5091933;28;20194;-82
2023/06/27 07:36:02;;;;;;;1.83;1.40;;;18.20;87.70;;;;;;5087757;28;20175;-76
2023/06/27 07:38:28;;;;;;;1.73;1.63;;;18.30;87.50;;;;;;5073019;28;20210;-77
2023/06/27 07:40:53;;;;;;;1.10;1.00;;;18.40;87.60;;;;;;5072960;28;20207;-80
2023/06/27 07:43:19;;;;;;;4.00;1.73;;;18.50;87.30;;;;;;5073642;28;20227;-82
2023/06/27 07:45:45;;;;;;;1.50;1.40;;;18.60;87.90;;;;;;5072966;28;20272;-77
2023/06/27 07:48:10;;;;;;;2.30;2.10;;;18.70;87.50;;;;;;5089739;28;20241;-80
2023/06/27 07:50:36;;;;;;;1.53;1.07;;;18.70;86.80;;;;;;5090267;28;20241;-82
2023/06/27 07:53:01;;;;;;;1.70;1.60;;;18.70;85.80;;;;;;5072829;28;20623;-81
2023/06/27 07:55:27;;;;;;;1.30;1.20;;;18.60;86.50;;;;;;5072823;28;20638;-84
2023/06/27 07:57:53;;;;;;;1.43;1.10;;;18.60;86.40;;;;;;5073086;28;20716;-70
2023/06/27 08:00:19;;;;;;;1.93;1.13;;;18.70;86.80;;;;;;5090304;28;20179;-74
2023/06/27 08:02:44;;;;;;;1.03;0.93;;;18.80;85.50;;;;;;5072042;28;20461;-75
2023/06/27 08:05:10;;;;;;;1.00;0.90;;;18.80;85.70;;;;;;5089497;28;20459;-80
2023/06/27 08:07:36;;;;;;;1.50;1.37;;;18.90;85.40;;;;;;5089262;28;20202;-71
2023/06/27 08:10:03;;;;;;;1.00;1.00;;;18.90;84.90;;;;;;5071843;28;20182;-77
2023/06/27 08:12:28;;;;;;;6.70;1.40;;;18.90;85.70;;;;;;5089686;28;20202;-80
2023/06/27 08:14:54;;;;;;;1.20;1.10;;;19.00;85.10;;;;;;5069988;28;20444;-79
2023/06/27 08:17:19;;;;;;;1.40;1.30;;;19.00;85.40;;;;;;5083221;28;20224;-78
2023/06/27 08:19:45;;;;;;;1.27;1.17;;;19.10;85.80;;;;;;5086382;28;20251;-75
2023/06/27 08:22:12;;;;;;;1.20;1.00;;;19.20;85.60;;;;;;5074661;28;20441;-77
2023/06/27 08:24:40;;;;;;;1.50;1.40;;;19.40;85.00;;;;;;5066445;28;20182;-81
2023/06/27 08:27:05;;;;;;;1.10;1.00;;;19.40;83.50;;;;;;5085474;28;20416;-72
2023/06/27 08:29:31;;;;;;;2.40;1.10;;;19.40;82.80;;;;;;5078651;28;20416;-74
2023/06/27 08:31:59;;;;;;;1.10;1.00;;;19.40;84.00;;;;;;5077285;28;20670;-77
2023/06/27 08:34:31;;;;;;;1.47;1.03;;;19.30;83.80;;;;;;5076547;28;20269;-78
2023/06/27 08:36:57;;;;;;;1.20;1.10;;;19.20;84.50;;;;;;5070054;28;20420;-78
2023/06/27 08:39:24;;;;;;;1.30;1.30;;;19.20;85.40;;;;;;5071692;28;20754;-75
2023/06/27 08:41:50;;;;;;;1.00;0.93;;;19.20;85.10;;;;;;5089283;28;20622;-74
2023/06/27 08:44:16;;;;;;;1.13;1.03;;;19.10;85.10;;;;;;5089577;28;20469;-75
2023/06/27 08:46:44;;;;;;;1.87;1.13;;;19.10;85.10;;;;;;5071383;28;20421;-79
2023/06/27 08:49:13;;;;;;;1.00;0.90;;;19.30;85.70;;;;;;5071034;28;20621;-74
2023/06/27 08:51:40;;;;;;;1.00;0.90;;;19.40;84.30;;;;;;5088292;28;20518;-74
2023/06/27 08:54:14;;;;;;;4.60;1.37;;;19.60;84.40;;;;;;5079216;28;20432;-75
2023/06/27 08:56:41;;;;;;;1.67;1.57;;;19.80;84.10;;;;;;5088643;28;20416;-73
2023/06/27 08:59:11;;;;;;;1.33;1.23;;;19.80;82.90;;;;;;5085462;28;20424;-75
2023/06/27 09:01:38;;;;;;;1.43;1.33;;;19.80;83.50;;;;;;5066515;28;20455;-75
2023/06/27 09:04:04;;;;;;;1.80;1.70;;;19.70;83.20;;;;;;5088975;28;20722;-75
2023/06/27 09:06:30;;;;;;;1.20;1.10;;;19.70;83.90;;;;;;5088815;28;20477;-74
2023/06/27 09:08:55;;;;;;;1.23;1.13;;;19.80;83.00;;;;;;5088649;28;20210;-75
2023/06/27 09:11:21;;;;;;;2.30;1.47;;;19.80;83.70;;;;;;5077164;28;20294;-74
2023/06/27 09:13:47;;;;;;;2.00;1.50;;;19.80;84.70;;;;;;5088705;28;20590;-76
2023/06/27 09:16:13;;;;;;;1.87;1.40;;;19.70;84.40;;;;;;5083908;28;20269;-75
2023/06/27 09:18:39;;;;;;;1.50;1.40;;;19.60;84.10;;;;;;5079643;28;20508;-82
2023/06/27 09:21:05;;;;;;;1.23;1.13;;;19.50;85.70;;;;;;5088718;28;20982;-75
2023/06/27 09:23:33;;;;;;;1.10;1.00;;;19.30;87.00;;;;;;5089419;28;20649;-82
2023/06/27 09:26:06;;;;;;;1.10;1.00;;;19.20;87.50;;;;;;5078816;28;20912;-86
2023/06/27 09:28:42;;;;;;;1.10;1.00;;;19.10;88.50;;;;;;5074624;28;20486;-72
2023/06/27 09:31:10;;;;;;;9.40;1.20;;;19.10;89.30;;;;;;5085424;28;20521;-80
2023/06/27 09:33:36;;;;;;;1.23;1.13;;;19.20;89.20;;;;;;5087627;28;20416;-75
2023/06/27 09:36:03;;;;;;;2.20;1.80;;;19.20;88.70;;;;;;5071423;28;20471;-83
2023/06/27 09:38:34;;;;;;;2.83;1.53;;;19.10;88.60;;;;;;5081077;28;20811;-79
2023/06/27 09:41:07;;;;;;;1.40;1.30;;;19.10;89.20;;;;;;5088667;28;20459;-85
2023/06/27 09:43:35;;;;;;;2.70;2.10;;;19.20;90.10;;;;;;5089642;28;20424;-81
2023/06/27 09:46:01;;;;;;;1.10;1.00;;;19.30;90.10;;;;;;5089216;28;20695;-80
2023/06/27 09:48:30;;;;;;;1.10;1.00;;;19.40;89.60;;;;;;5088909;28;21002;-81
2023/06/27 09:51:08;;;;;;;1.50;1.40;;;19.40;89.70;;;;;;5088665;28;20529;-80
2023/06/27 09:53:34;;;;;;;11.17;1.20;;;19.50;90.40;;;;;;5076360;28;20435;-84
2023/06/27 09:56:00;;;;;;;1.37;1.30;;;19.50;90.60;;;;;;5079509;28;20416;-82
2023/06/27 09:58:29;;;;;;;5.37;2.57;;;19.60;90.50;;;;;;5065560;28;20348;-77
2023/06/27 10:01:05;;;;;;;1.20;1.10;;;19.80;90.70;;;;;;5077862;28;20982;-82
2023/06/27 10:03:35;;;;;;;1.30;1.30;;;20.00;89.10;;;;;;5089327;28;20412;-80
2023/06/27 10:06:02;;;;;;;9.80;2.07;;;20.20;87.60;;;;;;5089362;28;20445;-87
2023/06/27 10:08:28;;;;;;;1.13;1.00;;;20.40;87.30;;;;;;5089682;28;20456;-70
2023/06/27 10:10:56;;;;;;;1.27;1.17;;;20.50;84.80;;;;;;5079796;28;20438;-73
2023/06/27 10:13:22;;;;;;;2.83;1.93;;;20.70;85.20;;;;;;5075454;28;20201;-75
2023/06/27 10:15:49;;;;;;;1.00;1.00;;;20.90;84.60;;;;;;5088128;28;20955;-75
2023/06/27 10:18:15;;;;;;;1.07;0.97;;;21.00;83.60;;;;;;5088190;28;20179;-76
2023/06/27 10:20:42;;;;;;;1.33;1.23;;;21.00;84.60;;;;;;5073984;28;20539;-76
2023/06/27 10:23:08;;;;;;;1.23;1.13;;;20.90;83.30;;;;;;5082634;28;20484;-81
2023/06/27 10:25:34;;;;;;;1.10;1.00;;;20.80;83.10;;;;;;5079166;28;20428;-72
2023/06/27 10:28:07;;;;;;;1.27;0.90;;;20.70;83.50;;;;;;5076477;28;20464;-74
2023/06/27 10:30:37;;;;;;;5.63;1.13;;;20.50;84.10;;;;;;5088501;28;20273;-74
2023/06/27 10:33:18;;;;;;;1.07;0.97;;;20.30;84.50;;;;;;5086971;28;20454;-78
2023/06/27 10:35:51;;;;;;;55.87;2.20;;;20.30;85.10;;;;;;5075942;28;20420;-70
2023/06/27 10:38:18;;;;;;;1.10;1.00;;;20.50;85.80;;;;;;5086005;28;20424;-77
2023/06/27 10:41:06;;;;;;;1.30;1.20;;;20.70;86.30;;;;;;5081220;28;20940;-81
2023/06/27 10:43:49;;;;;;;2.30;2.10;;;21.00;86.30;;;;;;5084601;28;20424;-74
2023/06/27 10:46:22;;;;;;;2.83;1.10;;;21.20;84.30;;;;;;5063732;28;20557;-69
2023/06/27 10:48:57;;;;;;;1.63;1.40;;;21.50;85.20;;;;;;5075533;28;20570;-78
2023/06/27 10:51:24;;;;;;;1.20;1.10;;;21.70;83.90;;;;;;5092469;28;20431;-77
2023/06/27 10:54:08;;;;;;;1.23;1.13;;;21.80;84.30;;;;;;5087823;28;20424;-73
2023/06/27 10:56:38;;;;;;;2.60;1.13;;;21.80;82.10;;;;;;5069161;28;20424;-70
2023/06/27 10:59:08;;;;;;;1.40;1.23;;;21.50;87.70;;;;;;5084927;28;20556;-68
2023/06/27 11:01:35;;;;;;;1.53;1.40;;;20.70;92.00;;;;;;5090099;28;20633;-71
2023/06/27 11:04:15;;;;;;;1.20;1.10;;;20.00;93.50;;;;;;5088458;28;20466;-70
2023/06/27 11:06:41;;;;;;;1.77;1.37;;;19.60;95.10;;;;;;5086798;28;20668;-71
2023/06/27 11:09:10;;;;;;;7.73;2.03;;;19.50;96.60;;;;;;5084286;28;20460;-71
2023/06/27 11:11:37;;;;;;;1.10;1.00;;;19.60;97.30;;;;;;5076295;28;20440;-72
2023/06/27 11:14:08;;;;;;;1.30;1.20;;;19.70;97.30;;;;;;5091130;28;21070;-71
2023/06/27 11:16:34;;;;;;;1.30;1.17;;;19.70;97.00;;;;;;5090967;28;20547;-71
2023/06/27 11:19:03;;;;;;;13.97;1.37;;;19.90;97.30;;;;;;5090693;28;20420;-72
2023/06/27 11:21:30;;;;;;;1.20;1.10;;;20.00;97.30;;;;;;5074689;28;20448;-73
2023/06/27 11:23:57;;;;;;;2.43;2.27;;;20.10;94.30;;;;;;5077372;28;20586;-70
2023/06/27 11:26:24;;;;;;;1.70;1.57;;;20.20;95.20;;;;;;5075564;28;20935;-72
2023/06/27 11:28:50;;;;;;;1.73;1.20;;;20.30;93.30;;;;;;5064088;28;21073;-71
2023/06/27 11:31:16;;;;;;;1.20;1.10;;;20.40;93.10;;;;;;5068532;28;20573;-70
2023/06/27 11:33:42;;;;;;;1.70;1.37;;;20.60;93.10;;;;;;5077623;28;20179;-72
2023/06/27 11:36:09;;;;;;;6.10;1.37;;;20.70;91.10;;;;;;5090210;28;20775;-70
2023/06/27 11:38:35;;;;;;;1.17;1.07;;;20.90;89.40;;;;;;5094110;28;20189;-72
2023/06/27 11:41:01;;;;;;;1.20;1.10;;;21.00;88.70;;;;;;5089907;28;20428;-70
2023/06/27 11:43:27;;;;;;;1.30;1.20;;;21.20;86.60;;;;;;5098173;28;20416;-72
2023/06/27 11:45:57;;;;;;;1.13;1.03;;;21.30;87.50;;;;;;5100903;28;20230;-71
2023/06/27 11:48:23;;;;;;;1.47;1.40;;;21.50;83.90;;;;;;5079059;28;21074;-70
2023/06/27 11:51:06;;;;;;;1.17;1.00;;;21.70;85.60;;;;;;5083156;28;20520;-70
2023/06/27 11:53:33;;;;;;;1.30;1.20;;;21.80;82.90;;;;;;5081500;28;20318;-76
2023/06/27 11:55:59;;;;;;;1.20;1.10;;;21.80;82.50;;;;;;5094383;28;20413;-75
2023/06/27 11:58:33;;;;;;;1.00;0.90;;;21.80;80.10;;;;;;5074370;28;20809;-71
2023/06/27 12:01:00;;;;;;;3.27;2.17;;;21.80;80.10;;;;;;5089061;28;20439;-77
2023/06/27 12:03:29;;;;;;;1.20;1.10;;;21.70;79.30;;;;;;5084525;28;20441;-72
2023/06/27 12:05:57;;;;;;;1.30;1.20;;;21.70;80.00;;;;;;5071155;28;20493;-75
2023/06/27 12:08:31;;;;;;;1.27;1.17;;;21.70;80.50;;;;;;5090434;28;20467;-76
2023/06/27 12:11:00;;;;;;;1.00;0.90;;;21.60;80.30;;;;;;5090162;28;20438;-76
2023/06/27 12:13:44;;;;;;;1.13;1.03;;;21.60;79.90;;;;;;5090631;28;20413;-74
2023/06/27 12:16:33;;;;;;;1.07;1.03;;;21.40;79.70;;;;;;5089980;28;20742;-76
2023/06/27 12:19:07;;;;;;;1.77;1.63;;;21.30;80.30;;;;;;5088783;28;20412;-77
2023/06/27 12:21:33;;;;;;;1.77;1.63;;;21.20;82.50;;;;;;5086794;28;20425;-72
2023/06/27 12:23:58;;;;;;;1.53;1.43;;;20.70;89.00;;;;;;5072118;28;20435;-80
2023/06/27 12:26:24;;;;;;;2.00;1.57;;;20.10;91.10;;;;;;5091495;28;20519;-88
2023/06/27 12:29:05;;;;;;;1.50;1.40;;;19.70;92.70;;;;;;5073479;28;20291;-84
2023/06/27 12:31:32;;;;;;;1.00;0.90;;;19.40;93.90;;;;;;5071807;28;20448;-84
2023/06/27 12:33:59;;;;;;;1.13;1.10;;;19.20;94.80;;;;;;5091261;28;20400;-84
2023/06/27 12:36:26;;;;;;;1.20;1.17;;;19.00;95.10;;;;;;5091172;28;20415;-86
2023/06/27 12:38:53;;;;;;;1.07;1.03;;;19.00;95.40;;;;;;5073015;28;20473;-85
2023/06/27 12:41:20;;;;;;;1.00;0.90;;;18.90;96.10;;;;;;5091352;28;20440;-83
2023/06/27 12:43:46;;;;;;;1.00;0.90;;;18.90;95.40;;;;;;5092101;28;20503;-83
2023/06/27 12:46:12;;;;;;;1.30;1.20;;;18.90;95.20;;;;;;5073134;28;20815;-81
2023/06/27 12:48:38;;;;;;;1.00;0.90;;;19.00;95.50;;;;;;5089670;28;20705;-82
2023/06/27 12:51:04;;;;;;;3.50;1.23;;;19.10;96.10;;;;;;5081425;28;20455;-81
2023/06/27 12:53:30;;;;;;;1.47;1.20;;;19.40;96.10;;;;;;5084757;28;20187;-80
2023/06/27 12:55:56;;;;;;;1.20;1.10;;;19.60;94.80;;;;;;5086923;28;20178;-73
2023/06/27 12:58:21;;;;;;;1.43;0.90;;;19.90;94.40;;;;;;5088591;28;20475;-79
2023/06/27 13:00:47;;;;;;;1.20;1.10;;;20.10;93.50;;;;;;5089463;28;20580;-79
2023/06/27 13:03:15;;;;;;;1.17;1.07;;;20.20;93.80;;;;;;5089517;28;20190;-79
2023/06/27 13:05:41;;;;;;;0.90;0.80;;;20.30;92.90;;;;;;5089157;28;20224;-76
2023/06/27 13:08:06;;;;;;;1.10;1.00;;;20.40;91.60;;;;;;5070491;28;20518;-76
2023/06/27 13:10:32;;;;;;;1.87;1.30;;;20.40;88.90;;;;;;5070343;28;20300;-77
2023/06/27 13:12:58;;;;;;;1.03;0.93;;;20.40;88.50;;;;;;5072315;28;20505;-76
2023/06/27 13:15:23;;;;;;;1.57;1.50;;;20.60;89.80;;;;;;5089199;28;20188;-74
2023/06/27 13:17:49;;;;;;;1.27;1.17;;;20.80;89.20;;;;;;5088413;28;20185;-76
2023/06/27 13:20:15;;;;;;;1.10;1.00;;;21.00;88.20;;;;;;5069574;28;20198;-77
2023/06/27 13:22:41;;;;;;;1.73;1.50;;;21.20;87.00;;;;;;5070279;28;20240;-72
2023/06/27 13:25:07;;;;;;;4.20;1.37;;;21.40;87.60;;;;;;5065211;28;20210;-74
2023/06/27 13:27:33;;;;;;;9.10;1.57;;;21.60;86.80;;;;;;5069190;28;20459;-75
2023/06/27 13:29:59;;;;;;;1.70;1.60;;;21.80;85.20;;;;;;5086083;28;20424;-77
2023/06/27 13:32:25;;;;;;;1.97;1.07;;;22.00;86.20;;;;;;5086741;28;20202;-73
2023/06/27 13:34:51;;;;;;;1.37;1.00;;;22.20;85.90;;;;;;5085947;28;20424;-73
2023/06/27 13:37:17;;;;;;;1.30;1.20;;;22.30;83.60;;;;;;5087462;28;20637;-75
2023/06/27 13:39:42;;;;;;;2.03;1.40;;;22.50;82.30;;;;;;5068466;28;20210;-73
2023/06/27 13:42:09;;;;;;;2.07;1.93;;;22.50;80.90;;;;;;5085772;28;20876;-76
2023/06/27 13:44:34;;;;;;;0.80;0.80;;;22.60;82.40;;;;;;5069925;28;20665;-73
2023/06/27 13:47:00;;;;;;;1.17;1.07;;;22.70;80.30;;;;;;5084311;28;20482;-76
2023/06/27 13:49:27;;;;;;;1.67;1.67;;;22.60;79.90;;;;;;5069227;28;20210;-75
2023/06/27 13:51:53;;;;;;;1.10;1.00;;;22.50;80.30;;;;;;5084750;28;20448;-81
2023/06/27 13:54:18;;;;;;;1.10;1.00;;;22.40;80.40;;;;;;5084414;28;20791;-68
2023/06/27 13:56:45;;;;;;;1.30;1.20;;;22.20;78.70;;;;;;5069009;28;20413;-76
2023/06/27 13:59:11;;;;;;;1.13;1.13;;;22.10;79.40;;;;;;5087390;28;20654;-76
2023/06/27 14:01:37;;;;;;;1.10;1.00;;;22.10;80.70;;;;;;5081630;28;20441;-75
2023/06/27 14:04:04;;;;;;;2.40;1.80;;;22.00;80.10;;;;;;5084907;28;20826;-77
2023/06/27 14:06:30;;;;;;;1.30;1.20;;;21.90;78.60;;;;;;5086287;28;20505;-79
2023/06/27 14:08:55;;;;;;;1.10;1.00;;;21.80;78.90;;;;;;5069038;28;20522;-81
2023/06/27 14:11:21;;;;;;;1.10;1.00;;;21.80;78.10;;;;;;5091342;28;20436;-80
2023/06/27 14:13:50;;;;;;;2.07;1.80;;;22.00;78.30;;;;;;5090103;28;20178;-78
2023/06/27 14:16:17;;;;;;;1.50;1.40;;;22.20;77.70;;;;;;5074200;28;20174;-81
2023/06/27 14:18:43;;;;;;;1.30;1.10;;;22.50;78.30;;;;;;5092489;28;20423;-78
2023/06/27 14:21:09;;;;;;;1.20;1.10;;;22.80;78.60;;;;;;5090712;28;20939;-75
2023/06/27 14:23:40;;;;;;;1.33;1.23;;;23.00;75.90;;;;;;5074177;28;20187;-77
2023/06/27 14:26:07;;;;;;;1.10;1.10;;;23.30;76.30;;;;;;5092112;28;20187;-75
2023/06/27 14:28:33;;;;;;;3.77;1.40;;;23.50;75.60;;;;;;5092417;28;20452;-66
2023/06/27 14:31:01;;;;;;;0.90;0.80;;;23.70;76.10;;;;;;5073279;28;20708;-79
2023/06/27 14:33:27;;;;;;;1.43;1.33;;;23.90;75.80;;;;;;5091909;28;20897;-76
2023/06/27 14:35:56;;;;;;;1.23;1.20;;;23.90;73.50;;;;;;5094122;28;20448;-75
2023/06/27 14:38:22;;;;;;;1.03;0.90;;;23.80;74.20;;;;;;5041638;28;20431;-77
2023/06/27 14:40:48;;;;;;;0.90;0.90;;;23.50;73.50;;;;;;5093947;28;20432;-78
2023/06/27 14:43:14;;;;;;;1.30;1.03;;;23.40;73.90;;;;;;5076620;28;20448;-81
2023/06/27 14:45:40;;;;;;;2.50;1.57;;;23.20;74.60;;;;;;5093828;28;20409;-74
2023/06/27 14:48:06;;;;;;;1.37;1.27;;;22.90;78.10;;;;;;5093171;28;20230;-74
2023/06/27 14:50:31;;;;;;;1.73;1.73;;;22.70;78.70;;;;;;5076959;28;20515;-74
2023/06/27 14:52:57;;;;;;;1.73;1.30;;;22.40;79.00;;;;;;5093955;28;20583;-72
2023/06/27 14:55:23;;;;;;;2.10;1.30;;;22.10;80.40;;;;;;5094059;28;20181;-75
2023/06/27 14:57:48;;;;;;;1.37;1.27;;;22.00;82.30;;;;;;5077244;28;20734;-77
2023/06/27 15:00:18;;;;;;;1.03;0.93;;;22.00;83.60;;;;;;5094764;28;20419;-75
2023/06/27 15:02:44;;;;;;;3.53;2.23;;;21.90;83.70;;;;;;5091965;28;20198;-74
2023/06/27 15:05:10;;;;;;;1.10;1.00;;;21.90;85.70;;;;;;5090640;28;20408;-74
2023/06/27 15:07:36;;;;;;;10.90;2.40;;;22.10;85.30;;;;;;5086539;28;20522;-74
2023/06/27 15:10:01;;;;;;;1.67;1.20;;;22.30;85.30;;;;;;5090119;28;20417;-72
2023/06/27 15:12:27;;;;;;;1.53;1.40;;;22.30;83.20;;;;;;5086153;28;22479;-83
2023/06/27 15:14:52;;;;;;;1.43;1.17;;;22.20;81.60;;;;;;5091866;28;20170;-68
2023/06/27 15:17:18;;;;;;;1.10;1.00;;;22.10;80.60;;;;;;5091249;28;20182;-78
2023/06/27 15:19:45;;;;;;;4.93;1.20;;;21.90;80.90;;;;;;5090829;28;20182;-76
2023/06/27 15:22:11;;;;;;;1.00;0.90;;;21.70;81.10;;;;;;5091005;28;20285;-73
2023/06/27 15:24:36;;;;;;;2.20;1.30;;;21.50;81.80;;;;;;5091154;28;20515;-76
2023/06/27 15:27:02;;;;;;;1.60;1.50;;;21.40;82.70;;;;;;5090826;28;20183;-71
2023/06/27 15:29:27;;;;;;;1.20;1.10;;;21.30;83.40;;;;;;5090575;28;20211;-73
2023/06/27 15:31:53;;;;;;;1.10;1.00;;;21.30;83.10;;;;;;5091484;28;20251;-83
2023/06/27 15:34:19;;;;;;;1.30;1.20;;;21.20;83.70;;;;;;5071769;28;20185;-84
2023/06/27 15:36:45;;;;;;;2.90;1.03;;;21.50;83.20;;;;;;5072685;28;20511;-74
2023/06/27 15:39:10;;;;;;;1.73;1.50;;;21.90;82.70;;;;;;5090340;28;20463;-76
2023/06/27 15:41:36;;;;;;;1.67;1.57;;;22.20;81.70;;;;;;5090388;28;20231;-72
2023/06/27 15:44:02;;;;;;;3.43;1.27;;;22.40;81.10;;;;;;5071487;28;20281;-75
2023/06/27 15:46:27;;;;;;;5.03;1.47;;;22.60;80.00;;;;;;5089239;28;20183;-92
2023/06/27 15:48:53;;;;;;;3.73;1.40;;;22.70;80.30;;;;;;5071949;28;20226;-72
2023/06/27 15:51:19;;;;;;;1.00;0.90;;;22.80;79.60;;;;;;5072705;28;20205;-91
2023/06/27 15:53:44;;;;;;;1.00;0.90;;;22.80;79.70;;;;;;5071285;28;20425;-84
2023/06/27 15:56:11;;;;;;;1.00;0.90;;;22.90;79.20;;;;;;5088952;28;20182;-82
2023/06/27 15:58:36;;;;;;;1.20;1.00;;;22.90;79.80;;;;;;5089537;28;20223;-79
2023/06/27 16:01:05;;;;;;;1.00;0.90;;;23.00;79.20;;;;;;5090836;28;20472;-81
2023/06/27 16:03:31;;;;;;;1.30;1.20;;;23.20;79.70;;;;;;5089093;28;20179;-86
2023/06/27 16:05:57;;;;;;;1.10;1.00;;;23.40;79.10;;;;;;5073580;28;20416;-85
2023/06/27 16:08:22;;;;;;;1.13;1.03;;;23.30;77.60;;;;;;5088216;28;20460;-82
2023/06/27 16:10:48;;;;;;;1.10;1.00;;;23.00;77.30;;;;;;5090801;28;20202;-80
2023/06/27 16:13:13;;;;;;;1.10;1.00;;;22.80;78.60;;;;;;5089842;28;20194;-84
2023/06/27 16:15:39;;;;;;;1.43;1.10;;;22.60;77.80;;;;;;5089897;28;20189;-86
2023/06/27 16:18:05;;;;;;;0.90;0.80;;;22.40;78.20;;;;;;5072932;28;20191;-84
2023/06/27 16:20:31;;;;;;;1.50;1.43;;;22.10;79.20;;;;;;5078268;28;20199;-81
2023/06/27 16:22:56;;;;;;;1.97;1.33;;;22.00;79.10;;;;;;5086859;28;20178;-83
2023/06/27 16:25:22;;;;;;;1.30;1.10;;;21.70;79.70;;;;;;5091161;28;20431;-80
2023/06/27 16:27:49;;;;;;;1.40;1.30;;;21.60;80.40;;;;;;5090836;28;20227;-82
2023/06/27 16:30:15;;;;;;;1.00;0.90;;;21.50;80.70;;;;;;5091098;28;20224;-84
2023/06/27 16:32:40;;;;;;;1.30;1.20;;;21.40;81.40;;;;;;5071919;28;20939;-76
2023/06/27 16:35:06;;;;;;;1.00;0.90;;;21.30;80.80;;;;;;5072436;28;20440;-82
2023/06/27 16:37:33;;;;;;;1.63;1.30;;;21.20;81.60;;;;;;5082952;28;20190;-81
2023/06/27 16:39:58;;;;;;;2.53;1.30;;;21.10;82.10;;;;;;5091238;28;20479;-83
2023/06/27 16:42:24;;;;;;;1.50;1.00;;;21.10;82.60;;;;;;5091422;28;20971;-86
2023/06/27 16:44:49;;;;;;;1.50;1.40;;;21.20;82.60;;;;;;5074388;28;20194;-90